sensor_id;sensor_type;location;lat;lon;timestamp;pressure;altitude;pressure_sealevel;temperature;humidity
54910;BME280;63189;51.240;9.964;2022-10-16T00:01:37;97513.75;;;14.16;100.00
54910;BME280;63189;51.240;9.964;2022-10-16T00:04:03;97518.06;;;14.17;100.00
54910;BME280;63189;51.240;9.964;2022-10-16T00:06:30;97519.78;;;14.18;100.00
54910;BME280;63189;51.240;9.964;2022-10-16T00:08:56;97521.56;;;14.18;100.00
54910;BME280;63189;51.240;9.964;2022-10-16T00:11:25;97524.94;;;14.20;100.00
54910;BME280;63189;51.240;9.964;2022-10-16T00:13:55;97524.19;;;14.18;100.00
54910;BME280;63189;51.240;9.964;2022-10-16T00:16:21;97531.13;;;14.19;100.00
54910;BME280;63189;51.240;9.964;2022-10-16T00:18:47;97536.38;;;14.19;100.00
54910;BME280;63189;51.240;9.964;2022-10-16T00:21:21;97540.81;;;14.16;100.00
54910;BME280;63189;51.240;9.964;2022-10-16T00:23:50;97542.59;;;14.16;100.00
54910;BME280;63189;51.240;9.964;2022-10-16T00:26:17;97558.28;;;14.18;100.00
54910;BME280;63189;51.240;9.964;2022-10-16T00:28:45;97548.69;;;14.16;100.00
54910;BME280;63189;51.240;9.964;2022-10-16T00:31:11;97548.63;;;14.18;100.00
54910;BME280;63189;51.240;9.964;2022-10-16T00:33:38;97539.13;;;14.15;100.00
54910;BME280;63189;51.240;9.964;2022-10-16T00:36:06;97526.72;;;14.19;100.00
54910;BME280;63189;51.240;9.964;2022-10-16T00:38:32;97527.56;;;14.20;100.00
54910;BME280;63189;51.240;9.964;2022-10-16T00:40:57;97531.97;;;14.19;100.00
54910;BME280;63189;51.240;9.964;2022-10-16T00:43:49;97540.78;;;14.18;100.00
54910;BME280;63189;51.240;9.964;2022-10-16T00:46:47;97537.53;;;14.13;100.00
54910;BME280;63189;51.240;9.964;2022-10-16T00:49:15;97535.66;;;14.15;100.00
54910;BME280;63189;51.240;9.964;2022-10-16T00:51:49;97526.94;;;14.14;100.00
54910;BME280;63189;51.240;9.964;2022-10-16T00:54:25;97534.72;;;14.16;100.00
54910;BME280;63189;51.240;9.964;2022-10-16T00:56:52;97522.03;;;14.08;100.00
54910;BME280;63189;51.240;9.964;2022-10-16T00:59:24;97521.03;;;14.11;100.00
54910;BME280;63189;51.240;9.964;2022-10-16T01:01:50;97529.56;;;14.14;100.00
54910;BME280;63189;51.240;9.964;2022-10-16T01:04:17;97534.81;;;14.14;100.00
54910;BME280;63189;51.240;9.964;2022-10-16T01:09:28;97547.16;;;14.12;100.00
54910;BME280;63189;51.240;9.964;2022-10-16T01:12:10;97528.03;;;14.10;100.00
54910;BME280;63189;51.240;9.964;2022-10-16T01:14:54;97535.16;;;14.08;100.00
54910;BME280;63189;51.240;9.964;2022-10-16T01:17:41;97539.75;;;14.03;100.00
54910;BME280;63189;51.240;9.964;2022-10-16T01:20:42;97545.63;;;14.08;100.00
54910;BME280;63189;51.240;9.964;2022-10-16T01:23:32;97539.69;;;14.05;100.00
54910;BME280;63189;51.240;9.964;2022-10-16T01:28:57;97552.03;;;14.03;100.00
54910;BME280;63189;51.240;9.964;2022-10-16T01:31:25;97553.19;;;13.97;100.00
54910;BME280;63189;51.240;9.964;2022-10-16T01:34:05;97544.53;;;13.95;100.00
54910;BME280;63189;51.240;9.964;2022-10-16T01:36:38;97539.47;;;13.92;100.00
54910;BME280;63189;51.240;9.964;2022-10-16T01:39:08;97549.25;;;13.89;100.00
54910;BME280;63189;51.240;9.964;2022-10-16T01:41:39;97551.97;;;13.87;100.00
54910;BME280;63189;51.240;9.964;2022-10-16T01:44:30;97564.91;;;13.90;100.00
54910;BME280;63189;51.240;9.964;2022-10-16T01:46:55;97565.66;;;13.92;100.00
54910;BME280;63189;51.240;9.964;2022-10-16T01:49:23;97574.47;;;13.91;100.00
54910;BME280;63189;51.240;9.964;2022-10-16T01:51:54;97574.47;;;13.91;100.00
54910;BME280;63189;51.240;9.964;2022-10-16T01:54:25;97563.81;;;13.94;100.00
54910;BME280;63189;51.240;9.964;2022-10-16T01:56:51;97561.09;;;13.96;100.00
54910;BME280;63189;51.240;9.964;2022-10-16T01:59:20;97565.50;;;13.95;100.00
54910;BME280;63189;51.240;9.964;2022-10-16T02:01:51;97567.19;;;13.96;100.00
54910;BME280;63189;51.240;9.964;2022-10-16T02:04:23;97577.00;;;13.93;100.00
54910;BME280;63189;51.240;9.964;2022-10-16T02:06:49;97567.28;;;13.95;100.00
54910;BME280;63189;51.240;9.964;2022-10-16T02:09:15;97578.84;;;13.91;100.00
54910;BME280;63189;51.240;9.964;2022-10-16T02:11:42;97569.22;;;13.91;100.00
54910;BME280;63189;51.240;9.964;2022-10-16T02:14:08;97579.78;;;13.90;100.00
54910;BME280;63189;51.240;9.964;2022-10-16T02:19:01;97591.41;;;13.84;100.00
54910;BME280;63189;51.240;9.964;2022-10-16T02:21:31;97596.63;;;13.84;100.00
54910;BME280;63189;51.240;9.964;2022-10-16T02:24:27;97590.78;;;13.79;100.00
54910;BME280;63189;51.240;9.964;2022-10-16T02:26:59;97596.88;;;13.79;100.00
54910;BME280;63189;51.240;9.964;2022-10-16T02:29:26;97596.03;;;13.79;100.00
54910;BME280;63189;51.240;9.964;2022-10-16T02:31:58;97582.00;;;13.80;100.00
54910;BME280;63189;51.240;9.964;2022-10-16T02:34:27;97586.06;;;13.85;100.00
54910;BME280;63189;51.240;9.964;2022-10-16T02:36:56;97584.38;;;13.84;100.00
54910;BME280;63189;51.240;9.964;2022-10-16T02:39:23;97568.97;;;13.78;100.00
54910;BME280;63189;51.240;9.964;2022-10-16T02:41:49;97557.66;;;13.78;100.00
54910;BME280;63189;51.240;9.964;2022-10-16T02:44:14;97574.91;;;13.82;100.00
54910;BME280;63189;51.240;9.964;2022-10-16T02:46:40;97572.28;;;13.82;100.00
54910;BME280;63189;51.240;9.964;2022-10-16T02:49:05;97578.47;;;13.81;100.00
54910;BME280;63189;51.240;9.964;2022-10-16T02:51:30;97574.13;;;13.80;100.00
54910;BME280;63189;51.240;9.964;2022-10-16T02:53:56;97575.84;;;13.81;100.00
54910;BME280;63189;51.240;9.964;2022-10-16T02:56:21;97569.09;;;13.75;100.00
54910;BME280;63189;51.240;9.964;2022-10-16T02:58:46;97586.41;;;13.79;100.00
54910;BME280;63189;51.240;9.964;2022-10-16T03:01:12;97584.72;;;13.78;100.00
54910;BME280;63189;51.240;9.964;2022-10-16T03:03:39;97577.84;;;13.76;100.00
54910;BME280;63189;51.240;9.964;2022-10-16T03:06:04;97580.59;;;13.73;100.00
54910;BME280;63189;51.240;9.964;2022-10-16T03:08:30;97598.41;;;13.66;100.00
54910;BME280;63189;51.240;9.964;2022-10-16T03:10:56;97600.94;;;13.68;100.00
54910;BME280;63189;51.240;9.964;2022-10-16T03:13:21;97597.31;;;13.70;100.00
54910;BME280;63189;51.240;9.964;2022-10-16T03:15:47;97598.84;;;13.74;100.00
54910;BME280;63189;51.240;9.964;2022-10-16T03:18:12;97599.72;;;13.75;100.00
54910;BME280;63189;51.240;9.964;2022-10-16T03:20:38;97588.63;;;13.70;100.00
54910;BME280;63189;51.240;9.964;2022-10-16T03:23:03;97592.09;;;13.70;100.00
54910;BME280;63189;51.240;9.964;2022-10-16T03:25:29;97607.72;;;13.72;100.00
54910;BME280;63189;51.240;9.964;2022-10-16T03:27:54;97592.94;;;13.71;100.00
54910;BME280;63189;51.240;9.964;2022-10-16T03:30:19;97600.72;;;13.72;100.00
54910;BME280;63189;51.240;9.964;2022-10-16T03:32:46;97602.47;;;13.72;100.00
54910;BME280;63189;51.240;9.964;2022-10-16T03:35:11;97622.44;;;13.74;100.00
54910;BME280;63189;51.240;9.964;2022-10-16T03:37:36;97625.22;;;13.71;100.00
54910;BME280;63189;51.240;9.964;2022-10-16T03:40:03;97620.81;;;13.72;100.00
54910;BME280;63189;51.240;9.964;2022-10-16T03:42:29;97603.50;;;13.69;100.00
54910;BME280;63189;51.240;9.964;2022-10-16T03:44:54;97617.28;;;13.73;100.00
54910;BME280;63189;51.240;9.964;2022-10-16T03:47:19;97627.63;;;13.76;100.00
54910;BME280;63189;51.240;9.964;2022-10-16T03:49:47;97615.75;;;13.69;100.00
54910;BME280;63189;51.240;9.964;2022-10-16T03:52:13;97624.44;;;13.69;100.00
54910;BME280;63189;51.240;9.964;2022-10-16T03:54:38;97618.56;;;13.64;100.00
54910;BME280;63189;51.240;9.964;2022-10-16T03:57:03;97624.59;;;13.66;100.00
54910;BME280;63189;51.240;9.964;2022-10-16T03:59:28;97633.31;;;13.67;100.00
54910;BME280;63189;51.240;9.964;2022-10-16T04:01:54;97635.84;;;13.68;100.00
54910;BME280;63189;51.240;9.964;2022-10-16T04:04:19;97634.25;;;13.66;100.00
54910;BME280;63189;51.240;9.964;2022-10-16T04:06:44;97632.38;;;13.68;100.00
54910;BME280;63189;51.240;9.964;2022-10-16T04:09:10;97641.25;;;13.65;100.00
54910;BME280;63189;51.240;9.964;2022-10-16T04:11:35;97630.91;;;13.62;100.00
54910;BME280;63189;51.240;9.964;2022-10-16T04:14:00;97638.81;;;13.61;100.00
54910;BME280;63189;51.240;9.964;2022-10-16T04:16:26;97635.13;;;13.65;100.00
54910;BME280;63189;51.240;9.964;2022-10-16T04:18:51;97657.84;;;13.64;100.00
54910;BME280;63189;51.240;9.964;2022-10-16T04:21:16;97657.00;;;13.64;100.00
54910;BME280;63189;51.240;9.964;2022-10-16T04:23:42;97663.09;;;13.64;100.00
54910;BME280;63189;51.240;9.964;2022-10-16T04:26:07;97670.09;;;13.64;100.00
54910;BME280;63189;51.240;9.964;2022-10-16T04:28:33;97678.78;;;13.66;100.00
54910;BME280;63189;51.240;9.964;2022-10-16T04:30:58;97676.84;;;13.69;100.00
54910;BME280;63189;51.240;9.964;2022-10-16T04:33:24;97680.47;;;13.67;100.00
54910;BME280;63189;51.240;9.964;2022-10-16T04:35:56;97674.22;;;13.69;100.00
54910;BME280;63189;51.240;9.964;2022-10-16T04:38:22;97673.22;;;13.72;100.00
54910;BME280;63189;51.240;9.964;2022-10-16T04:40:47;97674.16;;;13.71;100.00
54910;BME280;63189;51.240;9.964;2022-10-16T04:43:12;97669.84;;;13.70;100.00
54910;BME280;63189;51.240;9.964;2022-10-16T04:45:38;97676.06;;;13.67;100.00
54910;BME280;63189;51.240;9.964;2022-10-16T04:48:03;97677.00;;;13.66;100.00
54910;BME280;63189;51.240;9.964;2022-10-16T04:50:28;97671.59;;;13.69;100.00
54910;BME280;63189;51.240;9.964;2022-10-16T04:52:54;97668.50;;;13.61;100.00
54910;BME280;63189;51.240;9.964;2022-10-16T04:55:19;97684.84;;;13.66;100.00
54910;BME280;63189;51.240;9.964;2022-10-16T04:57:44;97661.47;;;13.62;100.00
54910;BME280;63189;51.240;9.964;2022-10-16T05:00:10;97652.84;;;13.60;100.00
54910;BME280;63189;51.240;9.964;2022-10-16T05:02:36;97644.72;;;13.66;100.00
54910;BME280;63189;51.240;9.964;2022-10-16T05:05:01;97647.25;;;13.67;100.00
54910;BME280;63189;51.240;9.964;2022-10-16T05:07:26;97651.16;;;13.58;100.00
54910;BME280;63189;51.240;9.964;2022-10-16T05:09:52;97658.66;;;13.66;100.00
54910;BME280;63189;51.240;9.964;2022-10-16T05:12:18;97661.63;;;13.58;100.00
54910;BME280;63189;51.240;9.964;2022-10-16T05:14:43;97656.41;;;13.58;100.00
54910;BME280;63189;51.240;9.964;2022-10-16T05:17:09;97670.25;;;13.61;100.00
54910;BME280;63189;51.240;9.964;2022-10-16T05:19:34;97646.69;;;13.61;100.00
54910;BME280;63189;51.240;9.964;2022-10-16T05:21:59;97652.84;;;13.60;100.00
54910;BME280;63189;51.240;9.964;2022-10-16T05:24:25;97635.44;;;13.58;100.00
54910;BME280;63189;51.240;9.964;2022-10-16T05:26:50;97626.94;;;13.53;100.00
54910;BME280;63189;51.240;9.964;2022-10-16T05:29:16;97616.78;;;13.47;100.00
54910;BME280;63189;51.240;9.964;2022-10-16T05:31:41;97627.25;;;13.47;100.00
54910;BME280;63189;51.240;9.964;2022-10-16T05:34:07;97624.22;;;13.38;100.00
54910;BME280;63189;51.240;9.964;2022-10-16T05:36:32;97626.75;;;13.39;100.00
54910;BME280;63189;51.240;9.964;2022-10-16T05:38:58;97619.06;;;13.36;100.00
54910;BME280;63189;51.240;9.964;2022-10-16T05:41:23;97631.22;;;13.37;100.00
54910;BME280;63189;51.240;9.964;2022-10-16T05:43:50;97634.75;;;13.36;100.00
54910;BME280;63189;51.240;9.964;2022-10-16T05:46:16;97647.84;;;13.36;100.00
54910;BME280;63189;51.240;9.964;2022-10-16T05:48:43;97651.41;;;13.35;100.00
54910;BME280;63189;51.240;9.964;2022-10-16T05:51:10;97654.13;;;13.32;100.00
54910;BME280;63189;51.240;9.964;2022-10-16T05:53:37;97651.94;;;13.23;100.00
54910;BME280;63189;51.240;9.964;2022-10-16T05:56:04;97662.91;;;13.31;100.00
54910;BME280;63189;51.240;9.964;2022-10-16T05:58:32;97671.53;;;13.33;100.00
54910;BME280;63189;51.240;9.964;2022-10-16T06:01:10;97686.28;;;13.36;100.00
54910;BME280;63189;51.240;9.964;2022-10-16T06:03:35;97676.06;;;13.29;100.00
54910;BME280;63189;51.240;9.964;2022-10-16T06:06:14;97692.47;;;13.33;100.00
54910;BME280;63189;51.240;9.964;2022-10-16T06:08:41;97690.78;;;13.32;100.00
54910;BME280;63189;51.240;9.964;2022-10-16T06:11:09;97701.00;;;13.38;100.00
54910;BME280;63189;51.240;9.964;2022-10-16T06:13:35;97707.94;;;13.39;100.00
54910;BME280;63189;51.240;9.964;2022-10-16T06:16:01;97721.03;;;13.39;100.00
54910;BME280;63189;51.240;9.964;2022-10-16T06:18:27;97710.03;;;13.31;100.00
54910;BME280;63189;51.240;9.964;2022-10-16T06:20:53;97707.56;;;13.28;100.00
54910;BME280;63189;51.240;9.964;2022-10-16T06:23:19;97716.00;;;13.35;100.00
54910;BME280;63189;51.240;9.964;2022-10-16T06:25:44;97715.16;;;13.34;100.00
54910;BME280;63189;51.240;9.964;2022-10-16T06:28:09;97715.09;;;13.36;100.00
54910;BME280;63189;51.240;9.964;2022-10-16T06:30:35;97729.88;;;13.37;100.00
54910;BME280;63189;51.240;9.964;2022-10-16T06:33:00;97728.09;;;13.37;100.00
54910;BME280;63189;51.240;9.964;2022-10-16T06:35:25;97732.41;;;13.38;100.00
54910;BME280;63189;51.240;9.964;2022-10-16T06:37:52;97740.19;;;13.40;100.00
54910;BME280;63189;51.240;9.964;2022-10-16T06:40:18;97738.50;;;13.39;100.00
54910;BME280;63189;51.240;9.964;2022-10-16T06:42:43;97734.25;;;13.36;100.00
54910;BME280;63189;51.240;9.964;2022-10-16T06:45:09;97735.66;;;13.43;100.00
54910;BME280;63189;51.240;9.964;2022-10-16T06:47:35;97746.28;;;13.40;100.00
54910;BME280;63189;51.240;9.964;2022-10-16T06:50:00;97747.91;;;13.43;100.00
54910;BME280;63189;51.240;9.964;2022-10-16T06:52:28;97765.28;;;13.45;100.00
54910;BME280;63189;51.240;9.964;2022-10-16T06:54:53;97760.16;;;13.42;100.00
54910;BME280;63189;51.240;9.964;2022-10-16T06:57:18;97773.91;;;13.47;100.00
54910;BME280;63189;51.240;9.964;2022-10-16T06:59:43;97772.06;;;13.49;100.00
54910;BME280;63189;51.240;9.964;2022-10-16T07:02:10;97770.38;;;13.48;100.00
54910;BME280;63189;51.240;9.964;2022-10-16T07:04:35;97797.16;;;13.55;100.00
54910;BME280;63189;51.240;9.964;2022-10-16T07:07:01;97796.41;;;13.51;100.00
54910;BME280;63189;51.240;9.964;2022-10-16T07:09:26;97790.19;;;13.54;100.00
54910;BME280;63189;51.240;9.964;2022-10-16T07:11:52;97792.75;;;13.55;100.00
54910;BME280;63189;51.240;9.964;2022-10-16T07:14:19;97809.19;;;13.59;100.00
54910;BME280;63189;51.240;9.964;2022-10-16T07:16:46;97812.88;;;13.55;100.00
54910;BME280;63189;51.240;9.964;2022-10-16T07:19:11;97815.25;;;13.60;100.00
54910;BME280;63189;51.240;9.964;2022-10-16T07:21:39;97804.94;;;13.56;100.00
54910;BME280;63189;51.240;9.964;2022-10-16T07:24:06;97814.34;;;13.61;100.00
54910;BME280;63189;51.240;9.964;2022-10-16T07:26:34;97816.97;;;13.61;100.00
54910;BME280;63189;51.240;9.964;2022-10-16T07:29:00;97807.25;;;13.63;100.00
54910;BME280;63189;51.240;9.964;2022-10-16T07:31:26;97802.09;;;13.61;100.00
54910;BME280;63189;51.240;9.964;2022-10-16T07:33:51;97801.06;;;13.65;100.00
54910;BME280;63189;51.240;9.964;2022-10-16T07:36:18;97806.06;;;13.70;100.00
54910;BME280;63189;51.240;9.964;2022-10-16T07:38:44;97812.09;;;13.72;100.00
54910;BME280;63189;51.240;9.964;2022-10-16T07:41:13;97818.09;;;13.74;100.00
54910;BME280;63189;51.240;9.964;2022-10-16T07:43:39;97836.44;;;13.74;100.00
54910;BME280;63189;51.240;9.964;2022-10-16T07:46:04;97845.88;;;13.78;100.00
54910;BME280;63189;51.240;9.964;2022-10-16T07:48:32;97836.25;;;13.78;100.00
54910;BME280;63189;51.240;9.964;2022-10-16T07:51:03;97839.66;;;13.80;100.00
54910;BME280;63189;51.240;9.964;2022-10-16T07:53:30;97840.50;;;13.81;100.00
54910;BME280;63189;51.240;9.964;2022-10-16T07:56:04;97842.19;;;13.82;100.00
54910;BME280;63189;51.240;9.964;2022-10-16T07:58:31;97837.09;;;13.79;100.00
54910;BME280;63189;51.240;9.964;2022-10-16T08:00:57;97845.81;;;13.79;100.00
54910;BME280;63189;51.240;9.964;2022-10-16T08:03:23;97844.91;;;13.80;100.00
54910;BME280;63189;51.240;9.964;2022-10-16T08:05:49;97851.91;;;13.80;100.00
54910;BME280;63189;51.240;9.964;2022-10-16T08:08:15;97843.91;;;13.83;100.00
54910;BME280;63189;51.240;9.964;2022-10-16T08:10:41;97855.31;;;13.82;100.00
54910;BME280;63189;51.240;9.964;2022-10-16T08:13:07;97863.94;;;13.84;100.00
54910;BME280;63189;51.240;9.964;2022-10-16T08:15:32;97867.28;;;13.88;100.00
54910;BME280;63189;51.240;9.964;2022-10-16T08:18:02;97868.91;;;13.90;100.00
54910;BME280;63189;51.240;9.964;2022-10-16T08:20:29;97870.75;;;13.88;100.00
54910;BME280;63189;51.240;9.964;2022-10-16T08:22:55;97872.53;;;13.88;100.00
54910;BME280;63189;51.240;9.964;2022-10-16T08:25:24;97882.88;;;13.91;100.00
54910;BME280;63189;51.240;9.964;2022-10-16T08:27:49;97876.84;;;13.89;100.00
54910;BME280;63189;51.240;9.964;2022-10-16T08:30:17;97883.88;;;13.88;100.00
54910;BME280;63189;51.240;9.964;2022-10-16T08:32:44;97900.38;;;13.90;100.00
54910;BME280;63189;51.240;9.964;2022-10-16T08:35:10;97902.78;;;13.95;100.00
54910;BME280;63189;51.240;9.964;2022-10-16T08:37:36;97906.53;;;13.89;100.00
54910;BME280;63189;51.240;9.964;2022-10-16T08:40:03;97905.69;;;13.89;100.00
54910;BME280;63189;51.240;9.964;2022-10-16T08:48:22;97916.09;;;13.90;100.00
54910;BME280;63189;51.240;9.964;2022-10-16T08:50:52;97918.72;;;13.90;100.00
54910;BME280;63189;51.240;9.964;2022-10-16T08:53:27;97923.09;;;13.90;100.00
54910;BME280;63189;51.240;9.964;2022-10-16T08:55:54;97924.09;;;13.87;100.00
54910;BME280;63189;51.240;9.964;2022-10-16T08:58:22;97933.31;;;13.96;100.00
54910;BME280;63189;51.240;9.964;2022-10-16T09:00:56;97931.53;;;13.96;100.00
54910;BME280;63189;51.240;9.964;2022-10-16T09:06:00;97945.94;;;14.06;100.00
54910;BME280;63189;51.240;9.964;2022-10-16T09:08:43;97943.97;;;14.11;99.61
54910;BME280;63189;51.240;9.964;2022-10-16T09:14:06;97945.66;;;14.12;98.25
54910;BME280;63189;51.240;9.964;2022-10-16T09:16:46;97948.94;;;14.18;98.56
54910;BME280;63189;51.240;9.964;2022-10-16T09:19:23;97955.75;;;14.22;98.18
54910;BME280;63189;51.240;9.964;2022-10-16T09:21:50;97951.03;;;14.30;98.03
54910;BME280;63189;51.240;9.964;2022-10-16T09:24:23;97946.41;;;14.35;98.46
54910;BME280;63189;51.240;9.964;2022-10-16T09:26:50;97959.44;;;14.36;99.01
54910;BME280;63189;51.240;9.964;2022-10-16T09:29:17;97954.84;;;14.41;99.14
54910;BME280;63189;51.240;9.964;2022-10-16T09:31:45;97952.97;;;14.45;99.10
54910;BME280;63189;51.240;9.964;2022-10-16T09:34:30;97966.00;;;14.47;95.45
54910;BME280;63189;51.240;9.964;2022-10-16T09:36:58;97951.09;;;14.47;95.45
54910;BME280;63189;51.240;9.964;2022-10-16T09:39:24;97955.94;;;14.56;97.13
54910;BME280;63189;51.240;9.964;2022-10-16T09:41:50;97958.28;;;14.62;97.33
54910;BME280;63189;51.240;9.964;2022-10-16T09:44:26;97959.84;;;14.66;95.88
54910;BME280;63189;51.240;9.964;2022-10-16T09:47:13;97958.56;;;14.75;96.07
54910;BME280;63189;51.240;9.964;2022-10-16T09:49:51;97961.75;;;14.82;94.97
54910;BME280;63189;51.240;9.964;2022-10-16T09:52:18;97964.22;;;14.85;92.77
54910;BME280;63189;51.240;9.964;2022-10-16T09:54:55;97964.06;;;14.88;92.68
54910;BME280;63189;51.240;9.964;2022-10-16T09:57:21;97970.16;;;14.88;92.21
54910;BME280;63189;51.240;9.964;2022-10-16T09:59:49;97973.38;;;14.95;92.89
54910;BME280;63189;51.240;9.964;2022-10-16T10:02:16;97978.63;;;14.95;91.61
54910;BME280;63189;51.240;9.964;2022-10-16T10:04:48;97973.53;;;14.92;91.30
54910;BME280;63189;51.240;9.964;2022-10-16T10:07:23;97983.00;;;14.94;91.45
54910;BME280;63189;51.240;9.964;2022-10-16T10:09:49;97982.00;;;14.97;92.41
54910;BME280;63189;51.240;9.964;2022-10-16T10:12:26;97984.63;;;14.97;91.32
54910;BME280;63189;51.240;9.964;2022-10-16T10:14:54;97986.50;;;14.95;91.88
54910;BME280;63189;51.240;9.964;2022-10-16T10:17:24;97992.34;;;15.00;92.02
54910;BME280;63189;51.240;9.964;2022-10-16T10:19:54;97990.66;;;14.99;89.82
54910;BME280;63189;51.240;9.964;2022-10-16T10:22:27;97999.25;;;15.02;89.57
54910;BME280;63189;51.240;9.964;2022-10-16T10:35:58;97999.72;;;15.47;92.12
54910;BME280;63189;51.240;9.964;2022-10-16T10:41:34;98002.31;;;16.33;83.42
54910;BME280;63189;51.240;9.964;2022-10-16T10:44:25;98007.81;;;16.62;81.43
54910;BME280;63189;51.240;9.964;2022-10-16T10:47:07;98012.03;;;16.97;82.10
54910;BME280;63189;51.240;9.964;2022-10-16T11:00:42;98017.66;;;17.23;75.02
54910;BME280;63189;51.240;9.964;2022-10-16T11:08:35;98010.63;;;17.53;71.59
54910;BME280;63189;51.240;9.964;2022-10-16T11:11:14;98011.47;;;17.70;70.12
54910;BME280;63189;51.240;9.964;2022-10-16T11:13:59;97994.75;;;17.85;71.76
54910;BME280;63189;51.240;9.964;2022-10-16T11:16:32;97996.88;;;18.08;70.29
54910;BME280;63189;51.240;9.964;2022-10-16T11:19:22;98012.53;;;18.26;66.67
54910;BME280;63189;51.240;9.964;2022-10-16T11:30:41;98006.59;;;18.51;65.15
54910;BME280;63189;51.240;9.964;2022-10-16T11:40:53;97995.78;;;18.69;63.15
54910;BME280;63189;51.240;9.964;2022-10-16T11:43:36;97995.69;;;18.71;63.38
54910;BME280;63189;51.240;9.964;2022-10-16T11:46:10;97995.38;;;18.75;63.01
54910;BME280;63189;51.240;9.964;2022-10-16T11:48:45;98001.78;;;18.86;63.68
54910;BME280;63189;51.240;9.964;2022-10-16T11:51:25;97999.88;;;19.02;64.44
54910;BME280;63189;51.240;9.964;2022-10-16T11:54:36;98000.50;;;19.06;59.60
54910;BME280;63189;51.240;9.964;2022-10-16T11:57:12;98000.44;;;19.07;59.87
54910;BME280;63189;51.240;9.964;2022-10-16T11:59:50;97992.09;;;19.13;61.33
54910;BME280;63189;51.240;9.964;2022-10-16T12:05:18;97988.03;;;19.22;60.66
54910;BME280;63189;51.240;9.964;2022-10-16T12:08:02;97995.47;;;19.29;59.20
54910;BME280;63189;51.240;9.964;2022-10-16T12:10:31;97985.63;;;19.31;60.03
54910;BME280;63189;51.240;9.964;2022-10-16T12:12:58;97992.81;;;19.29;60.84
54910;BME280;63189;51.240;9.964;2022-10-16T12:15:28;97989.22;;;19.30;59.93
54910;BME280;63189;51.240;9.964;2022-10-16T12:17:55;97992.56;;;19.20;59.10
54910;BME280;63189;51.240;9.964;2022-10-16T12:20:27;97991.31;;;19.25;61.57
54910;BME280;63189;51.240;9.964;2022-10-16T12:22:57;97997.44;;;19.26;60.45
54910;BME280;63189;51.240;9.964;2022-10-16T12:25:32;97997.69;;;19.36;60.40
54910;BME280;63189;51.240;9.964;2022-10-16T12:28:40;97997.50;;;19.39;61.77
54910;BME280;63189;51.240;9.964;2022-10-16T12:30:57;97998.09;;;19.29;58.68
54910;BME280;63189;51.240;9.964;2022-10-16T12:33:57;97999.97;;;19.27;59.30
54910;BME280;63189;51.240;9.964;2022-10-16T12:36:32;97999.97;;;19.27;60.19
54910;BME280;63189;51.240;9.964;2022-10-16T12:38:58;98000.22;;;19.37;60.11
54910;BME280;63189;51.240;9.964;2022-10-16T12:41:33;98000.44;;;19.34;59.65
54910;BME280;63189;51.240;9.964;2022-10-16T12:44:00;98000.91;;;19.41;61.59
54910;BME280;63189;51.240;9.964;2022-10-16T12:49:29;97996.50;;;19.54;60.38
54910;BME280;63189;51.240;9.964;2022-10-16T12:51:52;97993.84;;;19.54;60.58
54910;BME280;63189;51.240;9.964;2022-10-16T12:54:31;97999.69;;;19.59;60.09
54910;BME280;63189;51.240;9.964;2022-10-16T12:57:38;97999.50;;;19.62;60.17
54910;BME280;63189;51.240;9.964;2022-10-16T13:14:06;98016.78;;;18.99;56.95
54910;BME280;63189;51.240;9.964;2022-10-16T13:16:50;98011.22;;;18.90;58.56
54910;BME280;63189;51.240;9.964;2022-10-16T13:19:30;98020.25;;;19.00;59.06
54910;BME280;63189;51.240;9.964;2022-10-16T13:30:18;98021.66;;;19.06;60.93
54910;BME280;63189;51.240;9.964;2022-10-16T13:33:02;98018.53;;;19.13;60.64
54910;BME280;63189;51.240;9.964;2022-10-16T13:35:31;98026.34;;;19.15;61.12
54910;BME280;63189;51.240;9.964;2022-10-16T13:38:16;98032.69;;;19.12;60.29
54910;BME280;63189;51.240;9.964;2022-10-16T13:43:37;98036.09;;;19.14;58.30
54910;BME280;63189;51.240;9.964;2022-10-16T13:46:06;98031.00;;;19.11;59.56
54910;BME280;63189;51.240;9.964;2022-10-16T13:48:33;98041.78;;;19.08;59.17
54910;BME280;63189;51.240;9.964;2022-10-16T13:51:19;98043.84;;;19.03;59.17
54910;BME280;63189;51.240;9.964;2022-10-16T13:53:45;98034.91;;;18.91;59.96
54910;BME280;63189;51.240;9.964;2022-10-16T13:56:17;98029.91;;;18.87;59.41
54910;BME280;63189;51.240;9.964;2022-10-16T13:58:44;98041.22;;;18.89;59.70
54910;BME280;63189;51.240;9.964;2022-10-16T14:03:45;98049.81;;;18.92;60.63
54910;BME280;63189;51.240;9.964;2022-10-16T14:06:16;98051.59;;;18.92;60.64
54910;BME280;63189;51.240;9.964;2022-10-16T14:08:48;98062.53;;;18.86;59.87
54910;BME280;63189;51.240;9.964;2022-10-16T14:11:21;98056.13;;;18.75;59.50
54910;BME280;63189;51.240;9.964;2022-10-16T14:13:47;98072.56;;;18.66;60.34
54910;BME280;63189;51.240;9.964;2022-10-16T14:16:18;98074.19;;;18.53;59.26
54910;BME280;63189;51.240;9.964;2022-10-16T14:19:01;98074.41;;;18.50;60.49
54910;BME280;63189;51.240;9.964;2022-10-16T14:21:27;98080.53;;;18.51;61.31
54910;BME280;63189;51.240;9.964;2022-10-16T14:23:53;98084.09;;;18.50;61.53
54910;BME280;63189;51.240;9.964;2022-10-16T14:26:22;98068.75;;;18.56;61.50
54910;BME280;63189;51.240;9.964;2022-10-16T14:29:02;98068.47;;;18.61;61.75
54910;BME280;63189;51.240;9.964;2022-10-16T14:31:32;98067.63;;;18.60;61.32
54910;BME280;63189;51.240;9.964;2022-10-16T14:33:58;98072.63;;;18.65;61.95
54910;BME280;63189;51.240;9.964;2022-10-16T14:36:26;98083.59;;;18.73;62.33
54910;BME280;63189;51.240;9.964;2022-10-16T14:39:02;98080.78;;;18.76;61.38
54910;BME280;63189;51.240;9.964;2022-10-16T14:41:30;98073.13;;;18.71;62.63
54910;BME280;63189;51.240;9.964;2022-10-16T14:44:01;98080.50;;;18.66;62.58
54910;BME280;63189;51.240;9.964;2022-10-16T14:46:38;98073.53;;;18.64;63.65